sensor_id;sensor_type;location;lat;lon;timestamp;P1;durP1;ratioP1;P2;durP2;ratioP2
2031;SDS011;27625;50.422;7.944;2022-07-17T00:02:37;4.93;;;2.20;;
2031;SDS011;27625;50.422;7.944;2022-07-17T00:05:04;4.33;;;2.30;;
2031;SDS011;27625;50.422;7.944;2022-07-17T00:07:31;4.60;;;2.40;;
2031;SDS011;27625;50.422;7.944;2022-07-17T00:09:58;4.07;;;2.27;;
2031;SDS011;27625;50.422;7.944;2022-07-17T00:12:24;3.83;;;2.23;;
2031;SDS011;27625;50.422;7.944;2022-07-17T00:14:51;5.60;;;2.90;;
2031;SDS011;27625;50.422;7.944;2022-07-17T00:17:17;7.63;;;3.17;;
2031;SDS011;27625;50.422;7.944;2022-07-17T00:19:45;7.53;;;2.40;;
2031;SDS011;27625;50.422;7.944;2022-07-17T00:22:11;4.40;;;2.53;;
2031;SDS011;27625;50.422;7.944;2022-07-17T00:24:38;5.33;;;2.47;;
2031;SDS011;27625;50.422;7.944;2022-07-17T00:27:04;3.80;;;2.50;;
2031;SDS011;27625;50.422;7.944;2022-07-17T00:29:31;4.87;;;2.60;;
2031;SDS011;27625;50.422;7.944;2022-07-17T00:31:58;3.93;;;2.33;;
2031;SDS011;27625;50.422;7.944;2022-07-17T00:34:24;6.20;;;2.53;;
2031;SDS011;27625;50.422;7.944;2022-07-17T00:36:52;5.90;;;2.80;;
2031;SDS011;27625;50.422;7.944;2022-07-17T00:39:19;4.70;;;2.53;;
2031;SDS011;27625;50.422;7.944;2022-07-17T00:41:45;6.97;;;2.87;;
2031;SDS011;27625;50.422;7.944;2022-07-17T00:44:12;4.60;;;2.57;;
2031;SDS011;27625;50.422;7.944;2022-07-17T00:46:39;4.80;;;3.00;;
2031;SDS011;27625;50.422;7.944;2022-07-17T00:49:06;5.23;;;2.60;;
2031;SDS011;27625;50.422;7.944;2022-07-17T00:51:33;6.20;;;2.57;;
2031;SDS011;27625;50.422;7.944;2022-07-17T00:54:02;7.33;;;2.60;;
2031;SDS011;27625;50.422;7.944;2022-07-17T00:56:29;5.77;;;2.43;;
2031;SDS011;27625;50.422;7.944;2022-07-17T00:58:55;6.67;;;2.80;;
2031;SDS011;27625;50.422;7.944;2022-07-17T01:01:22;4.80;;;2.80;;
2031;SDS011;27625;50.422;7.944;2022-07-17T01:03:48;8.43;;;2.90;;
2031;SDS011;27625;50.422;7.944;2022-07-17T01:06:15;7.43;;;3.27;;
2031;SDS011;27625;50.422;7.944;2022-07-17T01:08:41;4.77;;;2.80;;
2031;SDS011;27625;50.422;7.944;2022-07-17T01:11:09;5.50;;;2.80;;
2031;SDS011;27625;50.422;7.944;2022-07-17T01:13:36;5.07;;;2.80;;
2031;SDS011;27625;50.422;7.944;2022-07-17T01:16:02;7.50;;;3.13;;
2031;SDS011;27625;50.422;7.944;2022-07-17T01:18:29;4.90;;;2.90;;
2031;SDS011;27625;50.422;7.944;2022-07-17T01:20:56;4.40;;;2.70;;
2031;SDS011;27625;50.422;7.944;2022-07-17T01:23:28;5.80;;;3.10;;
2031;SDS011;27625;50.422;7.944;2022-07-17T01:25:55;4.40;;;2.40;;
2031;SDS011;27625;50.422;7.944;2022-07-17T01:28:21;4.93;;;2.63;;
2031;SDS011;27625;50.422;7.944;2022-07-17T01:30:48;5.33;;;2.70;;
2031;SDS011;27625;50.422;7.944;2022-07-17T01:33:16;4.80;;;2.73;;
2031;SDS011;27625;50.422;7.944;2022-07-17T01:35:44;8.50;;;3.53;;
2031;SDS011;27625;50.422;7.944;2022-07-17T01:38:12;4.80;;;2.70;;
2031;SDS011;27625;50.422;7.944;2022-07-17T01:40:39;4.40;;;2.60;;
2031;SDS011;27625;50.422;7.944;2022-07-17T01:43:05;4.67;;;2.73;;
2031;SDS011;27625;50.422;7.944;2022-07-17T01:45:32;5.43;;;2.80;;
2031;SDS011;27625;50.422;7.944;2022-07-17T01:47:59;3.57;;;2.80;;
2031;SDS011;27625;50.422;7.944;2022-07-17T01:50:26;4.40;;;2.80;;
2031;SDS011;27625;50.422;7.944;2022-07-17T01:52:52;5.40;;;2.63;;
2031;SDS011;27625;50.422;7.944;2022-07-17T01:55:20;5.80;;;2.80;;
2031;SDS011;27625;50.422;7.944;2022-07-17T01:57:46;5.17;;;3.40;;
2031;SDS011;27625;50.422;7.944;2022-07-17T02:00:14;5.80;;;3.40;;
2031;SDS011;27625;50.422;7.944;2022-07-17T02:02:42;4.80;;;2.83;;
2031;SDS011;27625;50.422;7.944;2022-07-17T02:05:09;5.60;;;3.20;;
2031;SDS011;27625;50.422;7.944;2022-07-17T02:07:35;4.43;;;3.03;;
2031;SDS011;27625;50.422;7.944;2022-07-17T02:10:05;3.93;;;2.87;;
2031;SDS011;27625;50.422;7.944;2022-07-17T02:12:34;5.53;;;2.93;;
2031;SDS011;27625;50.422;7.944;2022-07-17T02:15:01;5.20;;;2.73;;
2031;SDS011;27625;50.422;7.944;2022-07-17T02:17:28;6.20;;;2.90;;
2031;SDS011;27625;50.422;7.944;2022-07-17T02:19:54;4.63;;;3.30;;
2031;SDS011;27625;50.422;7.944;2022-07-17T02:22:21;6.30;;;3.33;;
2031;SDS011;27625;50.422;7.944;2022-07-17T02:24:47;7.60;;;3.37;;
2031;SDS011;27625;50.422;7.944;2022-07-17T02:27:14;4.20;;;3.47;;
2031;SDS011;27625;50.422;7.944;2022-07-17T02:29:42;4.90;;;3.03;;
2031;SDS011;27625;50.422;7.944;2022-07-17T02:32:08;5.90;;;3.47;;
2031;SDS011;27625;50.422;7.944;2022-07-17T02:34:35;5.90;;;3.40;;
2031;SDS011;27625;50.422;7.944;2022-07-17T02:37:01;4.37;;;3.17;;
2031;SDS011;27625;50.422;7.944;2022-07-17T02:39:28;6.07;;;3.40;;
2031;SDS011;27625;50.422;7.944;2022-07-17T02:41:54;5.47;;;3.27;;
2031;SDS011;27625;50.422;7.944;2022-07-17T02:44:20;4.43;;;3.40;;
2031;SDS011;27625;50.422;7.944;2022-07-17T02:46:48;5.40;;;3.43;;
2031;SDS011;27625;50.422;7.944;2022-07-17T02:49:15;5.80;;;4.00;;
2031;SDS011;27625;50.422;7.944;2022-07-17T02:51:41;4.80;;;3.40;;
2031;SDS011;27625;50.422;7.944;2022-07-17T02:54:08;5.27;;;3.67;;
2031;SDS011;27625;50.422;7.944;2022-07-17T02:56:34;5.73;;;3.90;;
2031;SDS011;27625;50.422;7.944;2022-07-17T02:59:01;4.80;;;3.57;;
2031;SDS011;27625;50.422;7.944;2022-07-17T03:01:30;5.37;;;4.00;;
2031;SDS011;27625;50.422;7.944;2022-07-17T03:04:01;5.07;;;4.00;;
2031;SDS011;27625;50.422;7.944;2022-07-17T03:06:28;5.93;;;4.00;;
2031;SDS011;27625;50.422;7.944;2022-07-17T03:08:54;7.00;;;3.80;;
2031;SDS011;27625;50.422;7.944;2022-07-17T03:11:20;6.13;;;3.90;;
2031;SDS011;27625;50.422;7.944;2022-07-17T03:13:47;5.70;;;3.80;;
2031;SDS011;27625;50.422;7.944;2022-07-17T03:16:13;6.80;;;4.47;;
2031;SDS011;27625;50.422;7.944;2022-07-17T03:18:40;6.33;;;3.70;;
2031;SDS011;27625;50.422;7.944;2022-07-17T03:21:08;4.57;;;3.67;;
2031;SDS011;27625;50.422;7.944;2022-07-17T03:23:35;5.50;;;3.70;;
2031;SDS011;27625;50.422;7.944;2022-07-17T03:26:01;4.30;;;3.50;;
2031;SDS011;27625;50.422;7.944;2022-07-17T03:28:27;6.20;;;3.70;;
2031;SDS011;27625;50.422;7.944;2022-07-17T03:30:54;6.33;;;4.00;;
2031;SDS011;27625;50.422;7.944;2022-07-17T03:33:20;5.27;;;3.50;;
2031;SDS011;27625;50.422;7.944;2022-07-17T03:35:47;4.90;;;3.70;;
2031;SDS011;27625;50.422;7.944;2022-07-17T03:38:15;6.67;;;3.73;;
2031;SDS011;27625;50.422;7.944;2022-07-17T03:40:41;4.43;;;3.30;;
2031;SDS011;27625;50.422;7.944;2022-07-17T03:43:08;8.23;;;4.00;;
2031;SDS011;27625;50.422;7.944;2022-07-17T03:45:35;4.50;;;3.50;;
2031;SDS011;27625;50.422;7.944;2022-07-17T03:48:01;6.20;;;3.50;;
2031;SDS011;27625;50.422;7.944;2022-07-17T03:50:27;5.40;;;3.80;;
2031;SDS011;27625;50.422;7.944;2022-07-17T03:52:54;6.87;;;3.70;;
2031;SDS011;27625;50.422;7.944;2022-07-17T03:55:22;5.80;;;4.00;;
2031;SDS011;27625;50.422;7.944;2022-07-17T03:57:48;6.30;;;4.00;;
2031;SDS011;27625;50.422;7.944;2022-07-17T04:00:15;6.70;;;3.20;;
2031;SDS011;27625;50.422;7.944;2022-07-17T04:02:41;4.50;;;3.20;;
2031;SDS011;27625;50.422;7.944;2022-07-17T04:05:08;7.10;;;3.80;;
2031;SDS011;27625;50.422;7.944;2022-07-17T04:07:35;5.40;;;3.83;;
2031;SDS011;27625;50.422;7.944;2022-07-17T04:10:03;7.00;;;3.47;;
2031;SDS011;27625;50.422;7.944;2022-07-17T04:12:31;5.80;;;3.70;;
2031;SDS011;27625;50.422;7.944;2022-07-17T04:14:58;6.40;;;3.90;;
2031;SDS011;27625;50.422;7.944;2022-07-17T04:17:24;6.70;;;3.87;;
2031;SDS011;27625;50.422;7.944;2022-07-17T04:19:51;5.00;;;3.40;;
2031;SDS011;27625;50.422;7.944;2022-07-17T04:22:18;8.67;;;3.80;;
2031;SDS011;27625;50.422;7.944;2022-07-17T04:24:44;6.87;;;3.90;;
2031;SDS011;27625;50.422;7.944;2022-07-17T04:27:11;5.83;;;3.63;;
2031;SDS011;27625;50.422;7.944;2022-07-17T04:29:39;6.80;;;4.23;;
2031;SDS011;27625;50.422;7.944;2022-07-17T04:32:06;4.63;;;3.40;;
2031;SDS011;27625;50.422;7.944;2022-07-17T04:34:33;7.27;;;3.90;;
2031;SDS011;27625;50.422;7.944;2022-07-17T04:36:59;9.30;;;3.90;;
2031;SDS011;27625;50.422;7.944;2022-07-17T04:39:27;5.43;;;3.33;;
2031;SDS011;27625;50.422;7.944;2022-07-17T04:41:53;4.73;;;3.47;;
2031;SDS011;27625;50.422;7.944;2022-07-17T04:44:20;7.13;;;3.33;;
2031;SDS011;27625;50.422;7.944;2022-07-17T04:46:48;6.80;;;3.33;;
2031;SDS011;27625;50.422;7.944;2022-07-17T04:49:15;3.70;;;2.87;;
2031;SDS011;27625;50.422;7.944;2022-07-17T04:51:41;4.97;;;3.23;;
2031;SDS011;27625;50.422;7.944;2022-07-17T04:54:08;5.30;;;3.40;;
2031;SDS011;27625;50.422;7.944;2022-07-17T04:56:34;6.30;;;3.70;;
2031;SDS011;27625;50.422;7.944;2022-07-17T04:59:01;5.10;;;2.70;;
2031;SDS011;27625;50.422;7.944;2022-07-17T05:01:27;5.73;;;3.40;;
2031;SDS011;27625;50.422;7.944;2022-07-17T05:03:55;5.60;;;3.00;;
2031;SDS011;27625;50.422;7.944;2022-07-17T05:06:22;5.00;;;2.73;;
2031;SDS011;27625;50.422;7.944;2022-07-17T05:08:48;7.73;;;3.53;;
2031;SDS011;27625;50.422;7.944;2022-07-17T05:11:15;6.87;;;3.20;;
2031;SDS011;27625;50.422;7.944;2022-07-17T05:13:41;4.60;;;3.20;;
2031;SDS011;27625;50.422;7.944;2022-07-17T05:16:08;5.40;;;3.67;;
2031;SDS011;27625;50.422;7.944;2022-07-17T05:18:34;7.40;;;3.40;;
2031;SDS011;27625;50.422;7.944;2022-07-17T05:21:02;5.97;;;3.30;;
2031;SDS011;27625;50.422;7.944;2022-07-17T05:23:29;4.90;;;2.90;;
2031;SDS011;27625;50.422;7.944;2022-07-17T05:25:56;6.77;;;3.63;;
2031;SDS011;27625;50.422;7.944;2022-07-17T05:28:22;5.50;;;3.27;;
2031;SDS011;27625;50.422;7.944;2022-07-17T05:30:49;6.43;;;3.30;;
2031;SDS011;27625;50.422;7.944;2022-07-17T05:33:15;5.20;;;3.67;;
2031;SDS011;27625;50.422;7.944;2022-07-17T05:35:42;5.13;;;2.87;;
2031;SDS011;27625;50.422;7.944;2022-07-17T05:38:10;4.67;;;2.80;;
2031;SDS011;27625;50.422;7.944;2022-07-17T05:40:37;4.20;;;2.97;;
2031;SDS011;27625;50.422;7.944;2022-07-17T05:43:03;5.50;;;3.07;;
2031;SDS011;27625;50.422;7.944;2022-07-17T05:45:30;4.77;;;2.60;;
2031;SDS011;27625;50.422;7.944;2022-07-17T05:47:56;3.90;;;2.70;;
2031;SDS011;27625;50.422;7.944;2022-07-17T05:50:23;6.83;;;2.80;;
2031;SDS011;27625;50.422;7.944;2022-07-17T05:52:50;6.13;;;2.80;;
2031;SDS011;27625;50.422;7.944;2022-07-17T05:55:17;6.40;;;3.00;;
2031;SDS011;27625;50.422;7.944;2022-07-17T05:57:44;5.87;;;3.40;;
2031;SDS011;27625;50.422;7.944;2022-07-17T06:00:11;5.63;;;2.90;;
2031;SDS011;27625;50.422;7.944;2022-07-17T06:02:37;3.20;;;2.20;;
2031;SDS011;27625;50.422;7.944;2022-07-17T06:05:04;5.17;;;2.70;;
2031;SDS011;27625;50.422;7.944;2022-07-17T06:07:32;5.03;;;2.70;;
2031;SDS011;27625;50.422;7.944;2022-07-17T06:09:58;3.60;;;2.40;;
2031;SDS011;27625;50.422;7.944;2022-07-17T06:12:26;7.77;;;2.43;;
2031;SDS011;27625;50.422;7.944;2022-07-17T06:14:52;3.93;;;2.40;;
2031;SDS011;27625;50.422;7.944;2022-07-17T06:17:19;5.57;;;3.00;;
2031;SDS011;27625;50.422;7.944;2022-07-17T06:19:45;3.87;;;1.80;;
2031;SDS011;27625;50.422;7.944;2022-07-17T06:22:12;3.10;;;2.10;;
2031;SDS011;27625;50.422;7.944;2022-07-17T06:24:38;3.97;;;2.40;;
2031;SDS011;27625;50.422;7.944;2022-07-17T06:27:05;4.70;;;2.20;;
2031;SDS011;27625;50.422;7.944;2022-07-17T06:29:33;3.93;;;1.93;;
2031;SDS011;27625;50.422;7.944;2022-07-17T06:31:59;5.70;;;2.10;;
2031;SDS011;27625;50.422;7.944;2022-07-17T06:34:26;5.10;;;2.47;;
2031;SDS011;27625;50.422;7.944;2022-07-17T06:36:52;5.43;;;2.30;;
2031;SDS011;27625;50.422;7.944;2022-07-17T06:39:19;5.03;;;2.00;;
2031;SDS011;27625;50.422;7.944;2022-07-17T06:41:45;4.83;;;1.90;;
2031;SDS011;27625;50.422;7.944;2022-07-17T06:44:12;3.93;;;1.77;;
2031;SDS011;27625;50.422;7.944;2022-07-17T06:46:40;5.23;;;2.00;;
2031;SDS011;27625;50.422;7.944;2022-07-17T06:49:06;4.57;;;1.70;;
2031;SDS011;27625;50.422;7.944;2022-07-17T06:51:33;3.80;;;1.90;;
2031;SDS011;27625;50.422;7.944;2022-07-17T06:53:59;5.13;;;1.80;;
2031;SDS011;27625;50.422;7.944;2022-07-17T06:56:26;4.43;;;1.93;;
2031;SDS011;27625;50.422;7.944;2022-07-17T06:58:52;4.30;;;1.97;;
2031;SDS011;27625;50.422;7.944;2022-07-17T07:01:19;5.23;;;2.03;;
2031;SDS011;27625;50.422;7.944;2022-07-17T07:03:46;4.30;;;1.77;;
2031;SDS011;27625;50.422;7.944;2022-07-17T07:06:13;3.73;;;1.80;;
2031;SDS011;27625;50.422;7.944;2022-07-17T07:08:39;2.87;;;1.73;;
2031;SDS011;27625;50.422;7.944;2022-07-17T07:11:06;5.50;;;1.90;;
2031;SDS011;27625;50.422;7.944;2022-07-17T07:13:33;4.47;;;2.00;;
2031;SDS011;27625;50.422;7.944;2022-07-17T07:15:59;3.63;;;1.70;;
2031;SDS011;27625;50.422;7.944;2022-07-17T07:18:27;7.17;;;2.30;;
2031;SDS011;27625;50.422;7.944;2022-07-17T07:20:55;5.00;;;2.00;;
2031;SDS011;27625;50.422;7.944;2022-07-17T07:23:21;5.50;;;1.70;;
2031;SDS011;27625;50.422;7.944;2022-07-17T07:25:48;3.60;;;1.90;;
2031;SDS011;27625;50.422;7.944;2022-07-17T07:28:14;5.10;;;1.97;;
2031;SDS011;27625;50.422;7.944;2022-07-17T07:30:41;5.20;;;1.77;;
2031;SDS011;27625;50.422;7.944;2022-07-17T07:33:07;4.93;;;1.97;;
2031;SDS011;27625;50.422;7.944;2022-07-17T07:35:34;4.80;;;2.23;;
2031;SDS011;27625;50.422;7.944;2022-07-17T07:38:02;3.90;;;1.80;;
2031;SDS011;27625;50.422;7.944;2022-07-17T07:40:29;6.03;;;1.97;;
2031;SDS011;27625;50.422;7.944;2022-07-17T07:42:56;3.13;;;1.53;;
2031;SDS011;27625;50.422;7.944;2022-07-17T07:45:23;5.60;;;1.60;;
2031;SDS011;27625;50.422;7.944;2022-07-17T07:47:50;3.80;;;1.80;;
2031;SDS011;27625;50.422;7.944;2022-07-17T07:50:17;4.70;;;1.80;;
2031;SDS011;27625;50.422;7.944;2022-07-17T07:52:44;3.97;;;1.73;;
2031;SDS011;27625;50.422;7.944;2022-07-17T07:55:13;5.00;;;2.30;;
2031;SDS011;27625;50.422;7.944;2022-07-17T07:57:40;3.10;;;1.53;;
2031;SDS011;27625;50.422;7.944;2022-07-17T08:00:08;4.70;;;1.80;;
2031;SDS011;27625;50.422;7.944;2022-07-17T08:02:36;4.33;;;1.90;;
2031;SDS011;27625;50.422;7.944;2022-07-17T08:05:02;4.23;;;1.80;;
2031;SDS011;27625;50.422;7.944;2022-07-17T08:07:29;3.13;;;1.70;;
2031;SDS011;27625;50.422;7.944;2022-07-17T08:09:57;3.47;;;1.93;;
2031;SDS011;27625;50.422;7.944;2022-07-17T08:12:25;4.33;;;1.70;;
2031;SDS011;27625;50.422;7.944;2022-07-17T08:14:51;5.83;;;2.00;;
2031;SDS011;27625;50.422;7.944;2022-07-17T08:17:18;4.63;;;1.70;;
2031;SDS011;27625;50.422;7.944;2022-07-17T08:19:45;3.93;;;1.90;;
2031;SDS011;27625;50.422;7.944;2022-07-17T08:22:12;3.90;;;1.70;;
2031;SDS011;27625;50.422;7.944;2022-07-17T08:24:38;4.57;;;2.00;;
2031;SDS011;27625;50.422;7.944;2022-07-17T08:27:05;3.80;;;1.70;;
2031;SDS011;27625;50.422;7.944;2022-07-17T08:29:33;3.80;;;1.73;;
2031;SDS011;27625;50.422;7.944;2022-07-17T08:31:59;3.13;;;1.63;;
2031;SDS011;27625;50.422;7.944;2022-07-17T08:34:26;5.17;;;1.70;;
2031;SDS011;27625;50.422;7.944;2022-07-17T08:36:52;3.60;;;1.80;;
2031;SDS011;27625;50.422;7.944;2022-07-17T08:39:19;3.93;;;1.67;;
2031;SDS011;27625;50.422;7.944;2022-07-17T08:41:45;4.20;;;1.77;;
2031;SDS011;27625;50.422;7.944;2022-07-17T08:44:11;5.23;;;1.80;;
2031;SDS011;27625;50.422;7.944;2022-07-17T08:46:39;4.20;;;1.60;;
2031;SDS011;27625;50.422;7.944;2022-07-17T08:49:07;3.20;;;1.53;;
2031;SDS011;27625;50.422;7.944;2022-07-17T08:51:34;4.40;;;1.73;;
2031;SDS011;27625;50.422;7.944;2022-07-17T08:54:00;4.90;;;1.70;;
2031;SDS011;27625;50.422;7.944;2022-07-17T08:56:27;4.00;;;1.53;;
2031;SDS011;27625;50.422;7.944;2022-07-17T08:58:54;3.00;;;1.47;;
2031;SDS011;27625;50.422;7.944;2022-07-17T09:01:21;3.90;;;1.60;;
2031;SDS011;27625;50.422;7.944;2022-07-17T09:03:57;3.10;;;1.47;;
2031;SDS011;27625;50.422;7.944;2022-07-17T09:06:26;3.33;;;1.50;;
2031;SDS011;27625;50.422;7.944;2022-07-17T09:09:03;5.83;;;1.90;;
2031;SDS011;27625;50.422;7.944;2022-07-17T09:11:40;5.63;;;1.80;;
2031;SDS011;27625;50.422;7.944;2022-07-17T09:14:08;7.33;;;1.50;;
2031;SDS011;27625;50.422;7.944;2022-07-17T09:16:34;3.40;;;1.30;;
2031;SDS011;27625;50.422;7.944;2022-07-17T09:19:03;4.40;;;1.60;;
2031;SDS011;27625;50.422;7.944;2022-07-17T09:21:29;5.17;;;1.60;;
2031;SDS011;27625;50.422;7.944;2022-07-17T09:23:57;5.23;;;1.47;;
2031;SDS011;27625;50.422;7.944;2022-07-17T09:26:25;5.53;;;1.60;;
2031;SDS011;27625;50.422;7.944;2022-07-17T09:28:51;4.40;;;1.67;;
2031;SDS011;27625;50.422;7.944;2022-07-17T09:31:23;5.97;;;1.70;;
2031;SDS011;27625;50.422;7.944;2022-07-17T09:33:50;5.43;;;1.50;;
2031;SDS011;27625;50.422;7.944;2022-07-17T09:36:18;3.80;;;1.63;;
2031;SDS011;27625;50.422;7.944;2022-07-17T09:38:46;3.10;;;1.37;;
2031;SDS011;27625;50.422;7.944;2022-07-17T09:41:13;3.93;;;1.43;;
2031;SDS011;27625;50.422;7.944;2022-07-17T09:43:45;3.60;;;1.57;;
2031;SDS011;27625;50.422;7.944;2022-07-17T09:46:17;3.13;;;1.40;;
2031;SDS011;27625;50.422;7.944;2022-07-17T09:48:48;4.10;;;1.77;;
2031;SDS011;27625;50.422;7.944;2022-07-17T09:51:18;3.63;;;1.20;;
2031;SDS011;27625;50.422;7.944;2022-07-17T09:53:47;2.60;;;1.30;;
2031;SDS011;27625;50.422;7.944;2022-07-17T09:56:15;5.00;;;1.63;;
2031;SDS011;27625;50.422;7.944;2022-07-17T09:58:45;5.90;;;1.87;;
2031;SDS011;27625;50.422;7.944;2022-07-17T10:01:13;3.27;;;1.70;;
2031;SDS011;27625;50.422;7.944;2022-07-17T10:03:40;3.70;;;1.50;;
2031;SDS011;27625;50.422;7.944;2022-07-17T10:06:07;3.80;;;1.60;;
2031;SDS011;27625;50.422;7.944;2022-07-17T10:08:36;3.17;;;1.50;;
2031;SDS011;27625;50.422;7.944;2022-07-17T10:11:03;5.30;;;2.00;;
2031;SDS011;27625;50.422;7.944;2022-07-17T10:13:30;5.93;;;1.97;;
2031;SDS011;27625;50.422;7.944;2022-07-17T10:15:57;4.53;;;1.57;;
2031;SDS011;27625;50.422;7.944;2022-07-17T10:18:33;2.53;;;1.30;;
2031;SDS011;27625;50.422;7.944;2022-07-17T10:21:05;3.00;;;1.30;;
2031;SDS011;27625;50.422;7.944;2022-07-17T10:23:33;3.63;;;1.40;;
2031;SDS011;27625;50.422;7.944;2022-07-17T10:26:01;5.43;;;1.70;;
2031;SDS011;27625;50.422;7.944;2022-07-17T10:28:37;2.73;;;1.43;;
2031;SDS011;27625;50.422;7.944;2022-07-17T10:31:07;3.97;;;1.50;;
2031;SDS011;27625;50.422;7.944;2022-07-17T10:33:33;4.07;;;1.50;;
2031;SDS011;27625;50.422;7.944;2022-07-17T10:36:00;3.40;;;1.70;;
2031;SDS011;27625;50.422;7.944;2022-07-17T10:38:27;3.00;;;1.43;;
2031;SDS011;27625;50.422;7.944;2022-07-17T10:40:58;4.23;;;1.57;;
2031;SDS011;27625;50.422;7.944;2022-07-17T10:43:27;3.30;;;1.67;;
2031;SDS011;27625;50.422;7.944;2022-07-17T10:45:53;3.07;;;1.50;;
2031;SDS011;27625;50.422;7.944;2022-07-17T10:48:21;5.40;;;1.57;;
2031;SDS011;27625;50.422;7.944;2022-07-17T10:50:50;4.50;;;1.50;;
2031;SDS011;27625;50.422;7.944;2022-07-17T10:53:18;5.33;;;1.80;;
2031;SDS011;27625;50.422;7.944;2022-07-17T10:55:48;4.37;;;1.80;;
2031;SDS011;27625;50.422;7.944;2022-07-17T10:58:19;2.93;;;1.30;;
2031;SDS011;27625;50.422;7.944;2022-07-17T11:01:03;3.23;;;1.40;;
2031;SDS011;27625;50.422;7.944;2022-07-17T11:03:32;2.87;;;1.37;;
2031;SDS011;27625;50.422;7.944;2022-07-17T11:06:06;3.90;;;1.33;;
2031;SDS011;27625;50.422;7.944;2022-07-17T11:08:35;4.07;;;1.27;;
2031;SDS011;27625;50.422;7.944;2022-07-17T11:11:02;3.60;;;1.40;;
2031;SDS011;27625;50.422;7.944;2022-07-17T11:13:30;3.07;;;1.30;;
2031;SDS011;27625;50.422;7.944;2022-07-17T11:15:56;6.67;;;1.43;;
2031;SDS011;27625;50.422;7.944;2022-07-17T11:18:23;2.80;;;1.37;;
2031;SDS011;27625;50.422;7.944;2022-07-17T11:20:51;3.30;;;1.40;;
2031;SDS011;27625;50.422;7.944;2022-07-17T11:23:18;3.03;;;1.53;;
2031;SDS011;27625;50.422;7.944;2022-07-17T11:25:58;3.50;;;1.43;;
2031;SDS011;27625;50.422;7.944;2022-07-17T11:28:27;3.90;;;1.50;;
2031;SDS011;27625;50.422;7.944;2022-07-17T11:30:56;3.40;;;1.40;;
2031;SDS011;27625;50.422;7.944;2022-07-17T11:33:23;3.97;;;1.77;;
2031;SDS011;27625;50.422;7.944;2022-07-17T11:35:49;3.37;;;1.50;;
2031;SDS011;27625;50.422;7.944;2022-07-17T11:38:21;3.43;;;1.47;;
2031;SDS011;27625;50.422;7.944;2022-07-17T11:40:50;3.53;;;1.40;;
2031;SDS011;27625;50.422;7.944;2022-07-17T11:43:16;4.00;;;1.73;;
2031;SDS011;27625;50.422;7.944;2022-07-17T11:45:46;2.80;;;1.30;;
2031;SDS011;27625;50.422;7.944;2022-07-17T11:48:13;3.73;;;1.80;;
2031;SDS011;27625;50.422;7.944;2022-07-17T11:50:39;2.87;;;1.67;;
2031;SDS011;27625;50.422;7.944;2022-07-17T11:53:06;2.93;;;1.30;;
2031;SDS011;27625;50.422;7.944;2022-07-17T11:55:36;4.80;;;1.70;;
2031;SDS011;27625;50.422;7.944;2022-07-17T11:58:03;3.83;;;1.43;;
2031;SDS011;27625;50.422;7.944;2022-07-17T12:00:29;3.57;;;1.60;;
2031;SDS011;27625;50.422;7.944;2022-07-17T12:03:00;3.17;;;1.30;;
2031;SDS011;27625;50.422;7.944;2022-07-17T12:05:29;3.83;;;1.40;;
2031;SDS011;27625;50.422;7.944;2022-07-17T12:07:56;4.03;;;1.43;;
2031;SDS011;27625;50.422;7.944;2022-07-17T12:10:24;4.57;;;1.37;;
2031;SDS011;27625;50.422;7.944;2022-07-17T12:12:53;3.97;;;1.43;;
2031;SDS011;27625;50.422;7.944;2022-07-17T12:15:21;3.70;;;1.40;;
2031;SDS011;27625;50.422;7.944;2022-07-17T12:18:00;2.40;;;1.30;;
2031;SDS011;27625;50.422;7.944;2022-07-17T12:20:29;3.23;;;1.40;;
2031;SDS011;27625;50.422;7.944;2022-07-17T12:23:06;2.93;;;1.60;;
2031;SDS011;27625;50.422;7.944;2022-07-17T12:25:33;3.37;;;1.63;;
2031;SDS011;27625;50.422;7.944;2022-07-17T12:28:00;3.93;;;1.50;;
2031;SDS011;27625;50.422;7.944;2022-07-17T12:30:26;5.67;;;1.50;;
2031;SDS011;27625;50.422;7.944;2022-07-17T12:32:53;3.20;;;1.30;;
2031;SDS011;27625;50.422;7.944;2022-07-17T12:35:21;3.53;;;1.30;;
2031;SDS011;27625;50.422;7.944;2022-07-17T12:37:48;3.43;;;1.53;;
2031;SDS011;27625;50.422;7.944;2022-07-17T12:40:14;3.27;;;1.27;;
2031;SDS011;27625;50.422;7.944;2022-07-17T12:42:42;3.80;;;1.67;;
2031;SDS011;27625;50.422;7.944;2022-07-17T12:45:09;3.80;;;1.57;;
2031;SDS011;27625;50.422;7.944;2022-07-17T12:47:36;2.60;;;1.40;;
2031;SDS011;27625;50.422;7.944;2022-07-17T12:50:02;2.70;;;1.43;;
2031;SDS011;27625;50.422;7.944;2022-07-17T12:52:31;3.00;;;1.50;;
2031;SDS011;27625;50.422;7.944;2022-07-17T12:54:57;4.00;;;2.07;;
2031;SDS011;27625;50.422;7.944;2022-07-17T12:57:24;4.30;;;1.40;;
2031;SDS011;27625;50.422;7.944;2022-07-17T12:59:50;2.90;;;1.40;;
2031;SDS011;27625;50.422;7.944;2022-07-17T13:02:17;3.77;;;1.40;;
2031;SDS011;27625;50.422;7.944;2022-07-17T13:04:43;3.60;;;1.60;;
2031;SDS011;27625;50.422;7.944;2022-07-17T13:07:09;2.93;;;1.10;;
2031;SDS011;27625;50.422;7.944;2022-07-17T13:09:37;4.20;;;1.63;;
2031;SDS011;27625;50.422;7.944;2022-07-17T13:12:04;5.33;;;1.30;;
2031;SDS011;27625;50.422;7.944;2022-07-17T13:14:31;3.63;;;1.50;;
2031;SDS011;27625;50.422;7.944;2022-07-17T13:16:58;3.77;;;1.47;;
2031;SDS011;27625;50.422;7.944;2022-07-17T13:19:25;3.20;;;1.40;;
2031;SDS011;27625;50.422;7.944;2022-07-17T13:21:51;2.70;;;1.30;;
2031;SDS011;27625;50.422;7.944;2022-07-17T13:24:18;3.10;;;1.50;;
2031;SDS011;27625;50.422;7.944;2022-07-17T13:26:45;2.70;;;1.30;;
2031;SDS011;27625;50.422;7.944;2022-07-17T13:29:12;3.77;;;1.40;;
2031;SDS011;27625;50.422;7.944;2022-07-17T13:31:39;4.27;;;1.67;;
2031;SDS011;27625;50.422;7.944;2022-07-17T13:34:05;3.33;;;1.50;;
2031;SDS011;27625;50.422;7.944;2022-07-17T13:36:31;4.70;;;1.60;;
2031;SDS011;27625;50.422;7.944;2022-07-17T13:38:58;3.30;;;1.60;;
2031;SDS011;27625;50.422;7.944;2022-07-17T13:41:25;2.90;;;1.57;;
2031;SDS011;27625;50.422;7.944;2022-07-17T13:43:53;2.50;;;1.40;;
2031;SDS011;27625;50.422;7.944;2022-07-17T13:46:19;5.20;;;1.50;;
2031;SDS011;27625;50.422;7.944;2022-07-17T13:48:46;2.97;;;1.30;;
2031;SDS011;27625;50.422;7.944;2022-07-17T13:51:12;3.40;;;1.20;;
2031;SDS011;27625;50.422;7.944;2022-07-17T13:53:39;2.47;;;1.13;;
2031;SDS011;27625;50.422;7.944;2022-07-17T13:56:08;4.10;;;1.50;;
2031;SDS011;27625;50.422;7.944;2022-07-17T13:58:34;3.20;;;1.50;;
2031;SDS011;27625;50.422;7.944;2022-07-17T14:01:02;3.20;;;1.30;;
2031;SDS011;27625;50.422;7.944;2022-07-17T14:03:29;3.30;;;1.90;;
2031;SDS011;27625;50.422;7.944;2022-07-17T14:05:56;3.80;;;1.57;;
2031;SDS011;27625;50.422;7.944;2022-07-17T14:08:22;3.20;;;1.40;;
2031;SDS011;27625;50.422;7.944;2022-07-17T14:10:49;3.37;;;1.60;;
2031;SDS011;27625;50.422;7.944;2022-07-17T14:13:15;4.57;;;1.60;;
2031;SDS011;27625;50.422;7.944;2022-07-17T14:15:42;4.27;;;1.63;;
2031;SDS011;27625;50.422;7.944;2022-07-17T14:18:10;3.50;;;1.43;;
2031;SDS011;27625;50.422;7.944;2022-07-17T14:20:37;3.33;;;1.33;;
2031;SDS011;27625;50.422;7.944;2022-07-17T14:23:03;3.33;;;1.53;;
2031;SDS011;27625;50.422;7.944;2022-07-17T14:25:30;2.70;;;1.60;;
2031;SDS011;27625;50.422;7.944;2022-07-17T14:27:56;3.57;;;1.60;;
2031;SDS011;27625;50.422;7.944;2022-07-17T14:30:23;3.70;;;1.63;;
2031;SDS011;27625;50.422;7.944;2022-07-17T14:32:50;3.17;;;1.30;;
2031;SDS011;27625;50.422;7.944;2022-07-17T14:35:18;4.77;;;1.70;;
2031;SDS011;27625;50.422;7.944;2022-07-17T14:37:45;3.20;;;1.30;;
2031;SDS011;27625;50.422;7.944;2022-07-17T14:40:11;3.30;;;1.53;;
2031;SDS011;27625;50.422;7.944;2022-07-17T14:42:38;3.67;;;1.37;;
2031;SDS011;27625;50.422;7.944;2022-07-17T14:45:05;3.33;;;1.50;;
2031;SDS011;27625;50.422;7.944;2022-07-17T14:47:33;3.57;;;1.60;;
2031;SDS011;27625;50.422;7.944;2022-07-17T14:50:00;4.73;;;1.70;;
2031;SDS011;27625;50.422;7.944;2022-07-17T14:52:30;2.93;;;1.30;;
2031;SDS011;27625;50.422;7.944;2022-07-17T14:54:56;5.43;;;2.30;;
2031;SDS011;27625;50.422;7.944;2022-07-17T14:57:23;5.80;;;1.40;;
2031;SDS011;27625;50.422;7.944;2022-07-17T14:59:49;3.40;;;1.90;;
2031;SDS011;27625;50.422;7.944;2022-07-17T15:02:17;3.07;;;1.57;;